createdAt,value
2019-03-25T00:00:53.838Z,40.35
2019-03-25T00:03:25.188Z,44.98
2019-03-25T00:05:56.019Z,44.10
2019-03-25T00:08:26.649Z,45.80
2019-03-25T00:10:57.279Z,46.23
2019-03-25T00:13:28.353Z,49.80
2019-03-25T00:15:59.055Z,49.98
2019-03-25T00:18:29.891Z,51.40
2019-03-25T00:21:00.620Z,55.85
2019-03-25T00:23:31.561Z,52.88
2019-03-25T00:26:02.597Z,55.33
2019-03-25T00:28:33.337Z,54.15
2019-03-25T00:31:04.270Z,55.83
2019-03-25T00:33:35.514Z,54.50
2019-03-25T00:36:06.531Z,57.43
2019-03-25T00:38:37.384Z,56.83
2019-03-25T00:41:08.138Z,56.00
2019-03-25T00:43:38.954Z,55.28
2019-03-25T00:46:10.401Z,53.80
2019-03-25T00:48:41.137Z,53.45
2019-03-25T00:51:12.586Z,52.90
2019-03-25T00:53:42.906Z,51.20
2019-03-25T00:56:14.049Z,54.77
2019-03-25T00:58:44.680Z,54.50
2019-03-25T01:01:15.517Z,52.58
2019-03-25T01:03:47.120Z,55.70
2019-03-25T01:06:17.575Z,55.25
2019-03-25T01:08:49.844Z,56.10
2019-03-25T01:11:20.278Z,64.47
2019-03-25T01:13:51.963Z,66.35
2019-03-25T01:16:23.389Z,67.27
2019-03-25T01:18:54.226Z,68.80
2019-03-25T01:21:24.960Z,64.80
2019-03-25T01:23:55.689Z,63.65
2019-03-25T01:26:27.137Z,64.77
2019-03-25T01:28:59.434Z,63.70
2019-03-25T01:31:30.139Z,63.50
2019-03-25T01:34:00.835Z,61.37
2019-03-25T01:36:32.833Z,60.33
2019-03-25T01:39:03.878Z,60.35
2019-03-25T01:41:36.236Z,42.35
2019-03-25T01:44:06.771Z,59.45
2019-03-25T01:46:37.504Z,61.40
2019-03-25T01:49:08.343Z,59.25
2019-03-25T01:51:39.073Z,58.55
2019-03-25T01:54:10.009Z,59.13
2019-03-25T01:56:41.005Z,58.90
2019-03-25T01:59:12.905Z,57.83
2019-03-25T02:01:43.641Z,58.35
2019-03-25T02:04:14.681Z,60.05
2019-03-25T02:06:45.719Z,58.15
2019-03-25T02:09:16.353Z,58.90
2019-03-25T02:11:47.899Z,58.48
2019-03-25T02:14:18.943Z,58.80
2019-03-25T02:16:49.262Z,56.33
2019-03-25T02:19:19.993Z,56.25
2019-03-25T02:21:51.243Z,57.80
2019-03-25T02:24:22.381Z,56.42
2019-03-25T02:26:54.856Z,56.48
2019-03-25T02:29:26.107Z,56.53
2019-03-25T02:31:56.936Z,55.15
2019-03-25T02:34:27.667Z,57.23
2019-03-25T02:36:58.398Z,56.50
2019-03-25T02:39:29.803Z,56.25
2019-03-25T02:42:00.685Z,55.20
2019-03-25T02:44:32.003Z,56.60
2019-03-25T02:47:02.766Z,54.95
2019-03-25T02:49:33.598Z,54.88
2019-03-25T02:52:04.339Z,56.00
2019-03-25T02:54:35.473Z,54.35
2019-03-25T02:57:06.316Z,56.10
2019-03-25T02:59:37.755Z,57.80
2019-03-25T03:02:08.290Z,56.85
2019-03-25T03:04:38.855Z,59.00
2019-03-25T03:07:09.647Z,62.13
2019-03-25T03:09:40.380Z,60.73
2019-03-25T03:12:11.114Z,61.15
2019-03-25T03:14:42.871Z,57.45
2019-03-25T03:17:13.140Z,57.40
2019-03-25T03:19:44.527Z,58.48
2019-03-25T03:22:15.167Z,58.00
2019-03-25T03:24:45.805Z,60.33
2019-03-25T03:27:16.436Z,63.23
2019-03-25T03:29:47.263Z,62.67
2019-03-25T03:32:18.019Z,65.28
2019-03-25T03:34:48.735Z,64.42
2019-03-25T03:37:19.668Z,69.62
2019-03-25T03:39:50.601Z,69.58
2019-03-25T03:42:21.243Z,66.37
2019-03-25T03:44:51.555Z,66.85
2019-03-25T03:47:22.291Z,72.82
2019-03-25T03:49:52.966Z,68.28
2019-03-25T03:52:24.347Z,74.58
2019-03-25T03:54:55.916Z,70.80
2019-03-25T03:57:27.516Z,71.15
2019-03-25T03:59:57.919Z,68.85
2019-03-25T04:02:29.744Z,67.35
2019-03-25T04:05:00.525Z,65.95
2019-03-25T04:07:33.473Z,65.50
2019-03-25T04:10:06.046Z,66.33
2019-03-25T04:12:37.496Z,66.67
2019-03-25T04:15:08.017Z,70.95
2019-03-25T04:17:40.836Z,73.12
2019-03-25T04:20:11.639Z,70.25
2019-03-25T04:22:42.475Z,69.40
2019-03-25T04:25:16.048Z,70.75
2019-03-25T04:27:46.398Z,69.95
2019-03-25T04:30:17.031Z,74.32
2019-03-25T04:32:48.125Z,76.35
2019-03-25T04:35:20.341Z,79.05
2019-03-25T04:37:50.759Z,76.95
2019-03-25T04:40:21.493Z,77.25
2019-03-25T04:42:52.114Z,78.95
2019-03-25T04:45:22.847Z,76.57
2019-03-25T04:47:53.376Z,80.35
2019-03-25T04:50:24.109Z,71.95
2019-03-25T04:52:54.840Z,68.35
2019-03-25T04:55:25.575Z,67.50
2019-03-25T04:57:56.122Z,81.17
2019-03-25T05:00:37.584Z,78.50
2019-03-25T05:03:08.225Z,75.15
2019-03-25T05:05:40.282Z,78.05
2019-03-25T05:08:10.842Z,71.40
2019-03-25T05:10:41.440Z,68.17
2019-03-25T05:13:12.378Z,74.80
2019-03-25T05:15:43.108Z,70.20
2019-03-25T05:18:13.942Z,71.17
2019-03-25T05:20:44.578Z,65.17
2019-03-25T05:23:15.750Z,66.75
2019-03-25T05:25:45.947Z,66.10
2019-03-25T05:28:16.971Z,71.20
2019-03-25T05:30:47.810Z,68.33
2019-03-25T05:33:18.543Z,72.53
2019-03-25T05:35:51.736Z,75.45
2019-03-25T05:38:23.601Z,74.72
2019-03-25T05:40:54.058Z,74.15
2019-03-25T05:43:25.160Z,77.90
2019-03-25T05:45:55.962Z,71.70
2019-03-25T05:48:26.827Z,69.17
2019-03-25T05:50:57.562Z,63.70
2019-03-25T05:53:28.430Z,64.32
2019-03-25T05:55:59.041Z,69.97
2019-03-25T05:58:30.782Z,67.62
2019-03-25T06:01:01.413Z,60.67
2019-03-25T06:03:32.658Z,65.37
2019-03-25T06:06:03.494Z,68.40
2019-03-25T06:08:35.045Z,61.25
2019-03-25T06:11:05.777Z,65.32
2019-03-25T06:13:36.919Z,64.85
2019-03-25T06:16:07.648Z,56.05
2019-03-25T06:18:38.895Z,56.35
2019-03-25T06:21:12.183Z,56.30
2019-03-25T06:23:42.917Z,42.58
2019-03-25T06:26:13.653Z,51.65
2019-03-25T06:28:44.995Z,53.13
2019-03-25T06:31:15.731Z,54.25
2019-03-25T06:33:47.079Z,54.55
2019-03-25T06:36:17.722Z,55.58
2019-03-25T06:38:48.641Z,50.28
2019-03-25T06:41:19.786Z,52.83
2019-03-25T06:43:51.755Z,48.20
2019-03-25T06:46:22.415Z,47.15
2019-03-25T06:48:52.996Z,49.23
2019-03-25T06:51:23.845Z,48.15
2019-03-25T06:53:54.472Z,47.60
2019-03-25T06:56:25.110Z,48.23
2019-03-25T06:58:55.845Z,45.95
2019-03-25T07:01:26.564Z,44.65
2019-03-25T07:03:57.090Z,44.00
2019-03-25T07:06:28.648Z,44.83
2019-03-25T07:08:59.282Z,42.60
2019-03-25T07:11:30.791Z,47.38
2019-03-25T07:14:01.357Z,46.45
2019-03-25T07:16:32.087Z,47.95
2019-03-25T07:19:02.922Z,41.90
2019-03-25T07:21:34.169Z,47.23
2019-03-25T07:24:05.106Z,38.48
2019-03-25T07:26:35.731Z,25.02
2019-03-25T07:29:06.573Z,23.83
2019-03-25T07:31:38.219Z,44.98
2019-03-25T07:34:09.164Z,43.55
2019-03-25T07:36:40.213Z,38.67
2019-03-25T07:39:11.635Z,40.40
2019-03-25T07:41:42.050Z,42.35
2019-03-25T07:44:12.854Z,38.92
2019-03-25T07:46:43.543Z,39.45
2019-03-25T07:49:15.400Z,40.40
2019-03-25T07:51:46.540Z,33.80
2019-03-25T07:54:17.177Z,21.40
2019-03-25T07:56:48.748Z,18.95
2019-03-25T07:59:20.252Z,16.10
2019-03-25T08:01:50.916Z,13.38
2019-03-25T08:04:21.548Z,13.35
2019-03-25T08:06:52.281Z,13.93
2019-03-25T08:09:23.718Z,14.03
2019-03-25T08:11:54.108Z,12.15
2019-03-25T08:14:24.894Z,14.05
2019-03-25T08:16:55.707Z,13.03
2019-03-25T08:19:26.366Z,15.00
2019-03-25T08:21:56.999Z,13.25
2019-03-25T08:24:29.461Z,12.03
2019-03-25T08:27:00.070Z,11.08
2019-03-25T08:29:30.806Z,12.30
2019-03-25T08:32:01.545Z,11.60
2019-03-25T08:34:32.680Z,12.53
2019-03-25T08:37:04.503Z,11.57
2019-03-25T08:39:35.168Z,11.97
2019-03-25T08:42:05.695Z,11.60
2019-03-25T08:44:36.942Z,10.05
2019-03-25T08:47:07.777Z,11.05
2019-03-25T08:49:38.508Z,10.80
2019-03-25T08:52:09.161Z,10.93
2019-03-25T08:54:39.972Z,11.08
2019-03-25T08:57:11.854Z,11.95
2019-03-25T09:02:24.358Z,12.30
2019-03-25T09:04:54.954Z,12.33
2019-03-25T09:07:25.617Z,11.90
2019-03-25T09:09:56.218Z,12.55
2019-03-25T09:12:26.984Z,11.75
2019-03-25T09:14:57.716Z,11.60
2019-03-25T09:17:28.854Z,12.00
2019-03-25T09:19:59.513Z,12.50
2019-03-25T09:22:30.321Z,11.15
2019-03-25T09:25:01.201Z,11.48
2019-03-25T09:27:32.015Z,11.25
2019-03-25T09:30:03.619Z,11.63
2019-03-25T09:32:34.682Z,11.33
2019-03-25T09:35:07.081Z,11.55
2019-03-25T09:37:38.215Z,12.10
2019-03-25T09:40:08.825Z,11.20
2019-03-25T09:42:40.273Z,10.20
2019-03-25T09:45:11.103Z,10.25
2019-03-25T09:47:44.198Z,11.50
2019-03-25T09:50:16.156Z,11.50
2019-03-25T09:52:47.193Z,10.85
2019-03-25T09:55:18.420Z,10.43
2019-03-25T09:57:49.277Z,10.25
2019-03-25T10:00:24.320Z,10.30
2019-03-25T10:05:24.873Z,10.18
2019-03-25T10:07:55.584Z,11.65
2019-03-25T10:10:26.832Z,10.18
2019-03-25T10:12:57.257Z,10.30
2019-03-25T10:15:28.006Z,10.80
2019-03-25T10:17:58.996Z,11.35
2019-03-25T10:20:31.807Z,10.28
2019-03-25T10:23:02.537Z,10.75
2019-03-25T10:25:33.273Z,10.50
2019-03-25T10:28:04.515Z,9.88
2019-03-25T10:30:35.864Z,11.45
2019-03-25T10:33:06.598Z,10.60
2019-03-25T10:35:37.256Z,10.95
2019-03-25T10:38:19.186Z,10.75
2019-03-25T10:40:41.146Z,10.53
2019-03-25T10:43:11.714Z,10.63
2019-03-25T10:45:42.307Z,9.80
2019-03-25T10:48:13.758Z,10.58
2019-03-25T10:50:44.182Z,10.13
2019-03-25T10:53:15.014Z,9.60
2019-03-25T10:55:49.327Z,9.50
2019-03-25T10:58:21.199Z,10.05
2019-03-25T11:00:51.740Z,10.13
2019-03-25T11:03:22.548Z,9.60
2019-03-25T11:05:53.200Z,9.88
2019-03-25T11:08:26.369Z,10.00
2019-03-25T11:10:58.408Z,10.98
2019-03-25T11:13:28.720Z,11.00
2019-03-25T11:16:00.313Z,12.07
2019-03-25T11:18:31.156Z,10.58
2019-03-25T11:21:01.841Z,10.03
2019-03-25T11:23:32.708Z,9.43
2019-03-25T11:26:03.349Z,8.60
2019-03-25T11:28:34.079Z,8.95
2019-03-25T11:31:04.702Z,9.13
2019-03-25T11:33:35.435Z,8.88
2019-03-25T11:36:06.683Z,9.23
2019-03-25T11:38:37.116Z,9.53
2019-03-25T11:41:07.850Z,9.48
2019-03-25T11:43:38.672Z,9.15
2019-03-25T11:46:10.128Z,9.33
2019-03-25T11:48:40.782Z,9.68
2019-03-25T11:51:11.854Z,8.88
2019-03-25T11:53:42.431Z,9.10
2019-03-25T11:56:13.158Z,8.93
2019-03-25T11:58:45.936Z,9.68
2019-03-25T12:01:16.877Z,8.80
2019-03-25T12:03:47.712Z,9.50
2019-03-25T12:06:19.083Z,8.93
2019-03-25T12:08:49.753Z,9.28
2019-03-25T12:11:20.526Z,8.50
2019-03-25T12:13:51.258Z,8.60
2019-03-25T12:16:23.195Z,8.43
2019-03-25T12:18:53.720Z,8.95
2019-03-25T12:21:24.599Z,8.75
2019-03-25T12:23:55.214Z,8.83
2019-03-25T12:26:26.247Z,9.60
2019-03-25T12:28:57.805Z,8.93
2019-03-25T12:31:29.511Z,8.98
2019-03-25T12:34:00.082Z,9.10
2019-03-25T12:36:30.923Z,8.38
2019-03-25T12:39:01.651Z,8.25
2019-03-25T12:41:32.328Z,9.25
2019-03-25T12:44:03.625Z,9.90
2019-03-25T12:46:34.259Z,10.90
2019-03-25T12:49:04.995Z,10.13
2019-03-25T12:51:35.722Z,10.43
2019-03-25T12:54:07.173Z,10.88
2019-03-25T12:56:38.105Z,12.13
2019-03-25T12:59:09.787Z,11.68
2019-03-25T13:01:52.156Z,10.55
2019-03-25T13:04:13.390Z,11.68
2019-03-25T13:06:44.220Z,11.10
2019-03-25T13:09:14.851Z,11.57
2019-03-25T13:11:45.582Z,10.98
2019-03-25T13:14:16.632Z,11.73
2019-03-25T13:16:49.763Z,12.40
2019-03-25T13:19:20.544Z,12.13
2019-03-25T13:21:52.268Z,12.63
2019-03-25T13:24:23.036Z,13.00
2019-03-25T13:26:53.870Z,13.03
2019-03-25T13:29:25.113Z,12.18
2019-03-25T13:31:55.438Z,12.10
2019-03-25T13:34:26.077Z,11.73
2019-03-25T13:36:57.106Z,12.65
2019-03-25T13:39:27.736Z,10.65
2019-03-25T13:41:58.470Z,10.55
2019-03-25T13:44:29.410Z,10.53
2019-03-25T13:47:00.243Z,10.82
2019-03-25T13:49:31.791Z,10.10
2019-03-25T13:52:04.162Z,10.45
2019-03-25T13:54:35.408Z,12.03
2019-03-25T13:57:08.096Z,11.35
2019-03-25T13:59:38.424Z,12.25
2019-03-25T14:02:09.142Z,13.70
2019-03-25T14:04:41.514Z,14.75
2019-03-25T14:07:13.783Z,16.75
2019-03-25T14:09:46.359Z,18.50
2019-03-25T14:12:17.095Z,20.05
2019-03-25T14:14:49.365Z,21.23
2019-03-25T14:17:20.097Z,18.25
2019-03-25T14:19:51.540Z,18.48
2019-03-25T14:22:23.402Z,16.12
2019-03-25T14:24:54.027Z,16.55
2019-03-25T14:27:24.758Z,16.23
2019-03-25T14:29:55.494Z,16.52
2019-03-25T14:32:27.774Z,15.18
2019-03-25T14:34:58.855Z,14.85
2019-03-25T14:37:29.639Z,13.88
2019-03-25T14:40:00.887Z,13.18
2019-03-25T14:42:31.823Z,14.35
2019-03-25T14:45:03.075Z,14.47
2019-03-25T14:47:33.810Z,14.60
2019-03-25T14:50:05.802Z,14.38
2019-03-25T14:52:36.288Z,14.38
2019-03-25T14:55:10.511Z,14.65
2019-03-25T14:57:41.339Z,12.55
2019-03-25T15:00:12.479Z,10.32
2019-03-25T15:02:43.213Z,9.75
2019-03-25T15:05:14.147Z,9.93
2019-03-25T15:07:44.876Z,9.40
2019-03-25T15:10:18.173Z,9.48
2019-03-25T15:12:49.210Z,9.98
2019-03-25T15:15:19.943Z,11.48
2019-03-25T15:17:50.677Z,11.88
2019-03-25T15:20:21.405Z,13.20
2019-03-25T15:22:52.249Z,13.22
2019-03-25T15:25:23.077Z,14.25
2019-03-25T15:27:54.259Z,14.80
2019-03-25T15:30:35.208Z,16.45
2019-03-25T15:32:57.429Z,16.75
2019-03-25T15:35:28.466Z,17.32
2019-03-25T15:38:00.125Z,17.77
2019-03-25T15:40:31.328Z,17.25
2019-03-25T15:43:02.302Z,18.70
2019-03-25T15:45:33.046Z,18.32
2019-03-25T15:48:04.591Z,19.40
2019-03-25T15:50:35.814Z,17.87
2019-03-25T15:53:06.978Z,19.82
2019-03-25T15:55:37.600Z,19.57
2019-03-25T15:58:08.989Z,19.60
2019-03-25T16:00:47.771Z,20.23
2019-03-25T16:03:12.453Z,20.62
2019-03-25T16:05:43.497Z,21.30
2019-03-25T16:08:14.156Z,20.95
2019-03-25T16:10:44.973Z,21.45
2019-03-25T16:13:18.226Z,20.92
2019-03-25T16:15:48.984Z,21.45
2019-03-25T16:18:25.556Z,21.70
2019-03-25T16:20:57.007Z,21.85
2019-03-25T16:23:28.008Z,22.65
2019-03-25T16:25:58.883Z,21.80
2019-03-25T16:28:29.723Z,18.12
2019-03-25T16:31:00.446Z,17.82
2019-03-25T16:33:31.073Z,17.10
2019-03-25T16:36:01.714Z,17.40
2019-03-25T16:38:33.067Z,17.48
2019-03-25T16:41:04.002Z,18.05
2019-03-25T16:43:34.676Z,19.25
2019-03-25T16:46:05.420Z,18.40
2019-03-25T16:48:36.314Z,18.23
2019-03-25T16:51:07.149Z,19.85
2019-03-25T16:53:37.762Z,20.92
2019-03-25T16:56:08.936Z,15.43
2019-03-25T16:58:39.681Z,15.58
2019-03-25T17:01:10.718Z,17.60
2019-03-25T17:03:41.432Z,19.30
2019-03-25T17:06:12.405Z,18.98
2019-03-25T17:08:43.210Z,21.00
2019-03-25T17:11:13.982Z,20.02
2019-03-25T17:13:44.951Z,19.45
2019-03-25T17:16:15.589Z,20.77
2019-03-25T17:18:46.829Z,19.35
2019-03-25T17:21:17.474Z,17.60
2019-03-25T17:23:48.650Z,17.10
2019-03-25T17:26:19.199Z,14.70
2019-03-25T17:28:49.752Z,14.23
2019-03-25T17:31:21.411Z,13.75
2019-03-25T17:36:25.413Z,16.05
2019-03-25T17:38:56.060Z,14.75
2019-03-25T17:41:26.752Z,13.30
2019-03-25T17:43:57.532Z,13.65
2019-03-25T17:46:28.256Z,12.63
2019-03-25T17:48:59.805Z,12.47
2019-03-25T17:51:30.540Z,12.20
2019-03-25T17:54:01.799Z,11.15
2019-03-25T17:56:32.152Z,11.20
2019-03-25T17:59:02.841Z,11.05
2019-03-25T18:01:34.146Z,10.88
2019-03-25T18:04:05.336Z,10.25
2019-03-25T18:06:36.514Z,11.05
2019-03-25T18:09:07.816Z,9.85
2019-03-25T18:11:38.452Z,11.08
2019-03-25T18:14:09.183Z,10.70
2019-03-25T18:16:40.324Z,11.05
2019-03-25T18:19:12.110Z,10.35
2019-03-25T18:21:44.004Z,10.23
2019-03-25T18:24:14.567Z,14.30
2019-03-25T18:26:45.373Z,10.40
2019-03-25T18:29:17.118Z,10.53
2019-03-25T18:31:48.045Z,10.28
2019-03-25T18:34:20.313Z,9.50
2019-03-25T18:36:50.977Z,10.25
2019-03-25T18:39:22.344Z,10.80
2019-03-25T18:41:52.679Z,10.60
2019-03-25T18:44:23.429Z,10.20
2019-03-25T18:46:54.239Z,12.10
2019-03-25T18:49:25.790Z,10.80
2019-03-25T18:51:58.587Z,11.80
2019-03-25T18:54:28.886Z,11.35
2019-03-25T18:57:01.474Z,12.03
2019-03-25T18:59:32.030Z,13.75
2019-03-25T19:02:02.610Z,17.37
2019-03-25T19:04:33.454Z,12.68
2019-03-25T19:07:04.822Z,12.88
2019-03-25T19:09:35.125Z,12.33
2019-03-25T19:12:05.787Z,12.88
2019-03-25T19:14:36.682Z,12.33
2019-03-25T19:17:07.529Z,14.80
2019-03-25T19:19:38.874Z,12.43
2019-03-25T19:22:12.473Z,15.55
2019-03-25T19:24:42.335Z,12.58
2019-03-25T19:27:13.439Z,17.52
2019-03-25T19:29:44.163Z,16.20
2019-03-25T19:32:15.425Z,14.03
2019-03-25T19:34:46.173Z,17.57
2019-03-25T19:37:18.682Z,16.75
2019-03-25T19:39:49.031Z,16.20
2019-03-25T19:42:20.520Z,17.00
2019-03-25T19:44:51.441Z,17.07
2019-03-25T19:47:22.052Z,17.65
2019-03-25T19:49:52.729Z,17.98
2019-03-25T19:52:23.419Z,19.32
2019-03-25T19:54:54.144Z,20.40
2019-03-25T19:57:24.825Z,18.42
2019-03-25T19:59:55.761Z,19.27
2019-03-25T20:02:26.451Z,17.87
2019-03-25T20:04:57.180Z,18.80
2019-03-25T20:07:28.068Z,19.27
2019-03-25T20:09:58.852Z,22.13
2019-03-25T20:12:30.404Z,20.43
2019-03-25T20:15:00.746Z,19.82
2019-03-25T20:17:33.454Z,19.77
2019-03-25T20:20:05.910Z,19.57
2019-03-25T20:22:36.919Z,20.10
2019-03-25T20:25:07.982Z,19.85
2019-03-25T20:27:38.626Z,21.40
2019-03-25T20:30:10.994Z,21.15
2019-03-25T20:32:41.509Z,20.12
2019-03-25T20:35:12.965Z,18.67
2019-03-25T20:37:43.301Z,19.85
2019-03-25T20:40:14.319Z,19.55
2019-03-25T20:42:44.888Z,18.32
2019-03-25T20:45:18.184Z,19.25
2019-03-25T20:47:48.147Z,19.82
2019-03-25T20:50:19.787Z,19.95
2019-03-25T20:52:50.359Z,20.30
2019-03-25T20:55:20.969Z,20.32
2019-03-25T20:57:52.610Z,19.48
2019-03-25T21:00:28.983Z,19.80
2019-03-25T21:02:59.867Z,18.90
2019-03-25T21:05:31.276Z,18.32
2019-03-25T21:08:01.713Z,17.73
2019-03-25T21:10:32.398Z,18.12
2019-03-25T21:13:03.168Z,17.82
2019-03-25T21:15:33.664Z,16.20
2019-03-25T21:18:04.288Z,14.23
2019-03-25T21:20:35.655Z,13.30
2019-03-25T21:23:06.080Z,12.58
2019-03-25T21:25:37.898Z,13.30
2019-03-25T21:28:08.533Z,11.85
2019-03-25T21:30:47.767Z,10.98
2019-03-25T21:33:12.584Z,11.50
2019-03-25T21:35:43.510Z,10.32
2019-03-25T21:38:14.969Z,10.23
2019-03-25T21:40:45.633Z,10.48
2019-03-25T21:43:16.262Z,9.05
2019-03-25T21:45:47.394Z,9.30
2019-03-25T21:48:19.806Z,8.53
2019-03-25T21:50:51.207Z,9.55
2019-03-25T21:53:22.188Z,9.20
2019-03-25T21:55:55.358Z,9.60
2019-03-25T21:58:25.805Z,8.80
2019-03-25T22:00:56.565Z,8.70
2019-03-25T22:03:27.132Z,9.30
2019-03-25T22:05:58.449Z,9.20
2019-03-25T22:08:28.977Z,9.88
2019-03-25T22:10:59.709Z,10.08
2019-03-25T22:13:30.218Z,9.30
2019-03-25T22:16:02.299Z,9.30
2019-03-25T22:18:32.820Z,8.33
2019-03-25T22:21:07.309Z,8.70
2019-03-25T22:23:37.772Z,8.38
2019-03-25T22:26:08.301Z,9.05
2019-03-25T22:28:40.055Z,8.93
2019-03-25T22:31:10.582Z,7.67
2019-03-25T22:33:41.219Z,8.28
2019-03-25T22:36:11.742Z,8.30
2019-03-25T22:38:42.170Z,8.33
2019-03-25T22:41:14.232Z,8.88
2019-03-25T22:43:46.500Z,8.18
2019-03-25T22:46:17.440Z,8.83
2019-03-25T22:48:49.103Z,8.53
2019-03-25T22:51:21.358Z,8.20
2019-03-25T22:53:51.788Z,8.98
2019-03-25T22:56:22.925Z,7.83
2019-03-25T22:58:54.783Z,8.13
2019-03-25T23:01:25.829Z,8.80
2019-03-25T23:03:56.147Z,7.45
2019-03-25T23:06:26.881Z,8.40
2019-03-25T23:08:57.206Z,8.15
2019-03-25T23:11:27.833Z,8.35
2019-03-25T23:13:58.275Z,8.68
2019-03-25T23:16:29.606Z,7.97
2019-03-25T23:19:00.239Z,8.40
2019-03-25T23:21:30.864Z,8.70
2019-03-25T23:24:01.535Z,7.90
2019-03-25T23:26:32.124Z,7.95
2019-03-25T23:29:03.576Z,8.35
2019-03-25T23:31:34.607Z,7.67
2019-03-25T23:34:07.498Z,8.13
2019-03-25T23:36:39.667Z,8.28
2019-03-25T23:39:10.090Z,8.38
2019-03-25T23:41:40.718Z,7.80
2019-03-25T23:44:12.065Z,7.83
2019-03-25T23:46:43.516Z,6.97
2019-03-25T23:49:13.969Z,7.65
2019-03-25T23:51:44.571Z,7.60
2019-03-25T23:54:17.358Z,7.40
2019-03-25T23:56:47.983Z,7.42
2019-03-25T23:59:19.322Z,7.20
